sensor_id;sensor_type;location;lat;lon;timestamp;P1;durP1;ratioP1;P2;durP2;ratioP2
830;SDS011;397;50.564;7.272;2023-01-28T00:01:03;8.50;;;6.03;;
830;SDS011;397;50.564;7.272;2023-01-28T00:03:35;5.63;;;5.03;;
830;SDS011;397;50.564;7.272;2023-01-28T00:06:05;6.13;;;4.73;;
830;SDS011;397;50.564;7.272;2023-01-28T00:08:34;5.97;;;4.93;;
830;SDS011;397;50.564;7.272;2023-01-28T00:11:02;7.97;;;5.63;;
830;SDS011;397;50.564;7.272;2023-01-28T00:13:32;6.67;;;5.80;;
830;SDS011;397;50.564;7.272;2023-01-28T00:16:01;6.73;;;5.77;;
830;SDS011;397;50.564;7.272;2023-01-28T00:18:30;5.90;;;5.30;;
830;SDS011;397;50.564;7.272;2023-01-28T00:20:59;7.20;;;5.73;;
830;SDS011;397;50.564;7.272;2023-01-28T00:23:28;6.87;;;5.80;;
830;SDS011;397;50.564;7.272;2023-01-28T00:25:59;7.13;;;6.00;;
830;SDS011;397;50.564;7.272;2023-01-28T00:28:28;7.20;;;5.73;;
830;SDS011;397;50.564;7.272;2023-01-28T00:30:56;6.03;;;5.33;;
830;SDS011;397;50.564;7.272;2023-01-28T00:33:24;5.83;;;5.23;;
830;SDS011;397;50.564;7.272;2023-01-28T00:35:57;6.57;;;5.90;;
830;SDS011;397;50.564;7.272;2023-01-28T00:38:26;6.97;;;5.50;;
830;SDS011;397;50.564;7.272;2023-01-28T00:40:53;5.70;;;4.33;;
830;SDS011;397;50.564;7.272;2023-01-28T00:43:21;4.97;;;4.00;;
830;SDS011;397;50.564;7.272;2023-01-28T00:45:48;5.40;;;4.20;;
830;SDS011;397;50.564;7.272;2023-01-28T00:48:16;6.57;;;4.83;;
830;SDS011;397;50.564;7.272;2023-01-28T00:50:43;5.47;;;4.73;;
830;SDS011;397;50.564;7.272;2023-01-28T00:53:11;7.40;;;4.87;;
830;SDS011;397;50.564;7.272;2023-01-28T00:55:38;10.17;;;6.60;;
830;SDS011;397;50.564;7.272;2023-01-28T00:58:06;5.50;;;5.00;;
830;SDS011;397;50.564;7.272;2023-01-28T01:00:33;6.90;;;5.13;;
830;SDS011;397;50.564;7.272;2023-01-28T01:03:01;5.47;;;4.97;;
830;SDS011;397;50.564;7.272;2023-01-28T01:05:28;4.57;;;4.10;;
830;SDS011;397;50.564;7.272;2023-01-28T01:07:57;6.83;;;4.03;;
830;SDS011;397;50.564;7.272;2023-01-28T01:10:25;7.20;;;4.70;;
830;SDS011;397;50.564;7.272;2023-01-28T01:12:53;6.03;;;4.13;;
830;SDS011;397;50.564;7.272;2023-01-28T01:15:22;4.63;;;4.13;;
830;SDS011;397;50.564;7.272;2023-01-28T01:17:50;5.10;;;4.60;;
830;SDS011;397;50.564;7.272;2023-01-28T01:20:19;4.60;;;3.97;;
830;SDS011;397;50.564;7.272;2023-01-28T01:22:49;4.53;;;3.97;;
830;SDS011;397;50.564;7.272;2023-01-28T01:25:16;4.80;;;3.97;;
830;SDS011;397;50.564;7.272;2023-01-28T01:27:46;4.87;;;4.10;;
830;SDS011;397;50.564;7.272;2023-01-28T01:30:15;5.57;;;4.73;;
830;SDS011;397;50.564;7.272;2023-01-28T01:32:43;4.50;;;3.93;;
830;SDS011;397;50.564;7.272;2023-01-28T01:35:10;5.47;;;4.80;;
830;SDS011;397;50.564;7.272;2023-01-28T01:37:38;5.33;;;4.10;;
830;SDS011;397;50.564;7.272;2023-01-28T01:40:07;5.10;;;3.80;;
830;SDS011;397;50.564;7.272;2023-01-28T01:42:36;3.43;;;3.13;;
830;SDS011;397;50.564;7.272;2023-01-28T01:45:10;5.30;;;4.17;;
830;SDS011;397;50.564;7.272;2023-01-28T01:52:59;4.60;;;3.53;;
830;SDS011;397;50.564;7.272;2023-01-28T01:55:28;5.97;;;4.50;;
830;SDS011;397;50.564;7.272;2023-01-28T01:57:59;8.00;;;4.50;;
830;SDS011;397;50.564;7.272;2023-01-28T02:00:29;4.53;;;3.67;;
830;SDS011;397;50.564;7.272;2023-01-28T02:02:56;5.10;;;4.40;;
830;SDS011;397;50.564;7.272;2023-01-28T02:05:24;4.23;;;3.80;;
830;SDS011;397;50.564;7.272;2023-01-28T02:07:53;4.07;;;3.63;;
830;SDS011;397;50.564;7.272;2023-01-28T02:10:27;4.20;;;3.53;;
830;SDS011;397;50.564;7.272;2023-01-28T02:12:55;4.50;;;3.40;;
830;SDS011;397;50.564;7.272;2023-01-28T02:15:24;4.33;;;3.87;;
830;SDS011;397;50.564;7.272;2023-01-28T02:17:52;4.20;;;3.40;;
830;SDS011;397;50.564;7.272;2023-01-28T02:20:30;5.67;;;4.43;;
830;SDS011;397;50.564;7.272;2023-01-28T02:23:06;5.77;;;4.10;;
830;SDS011;397;50.564;7.272;2023-01-28T02:26:02;4.93;;;3.60;;
830;SDS011;397;50.564;7.272;2023-01-28T02:31:08;5.70;;;3.60;;
830;SDS011;397;50.564;7.272;2023-01-28T02:33:39;5.47;;;4.23;;
830;SDS011;397;50.564;7.272;2023-01-28T02:36:27;3.87;;;3.30;;
830;SDS011;397;50.564;7.272;2023-01-28T02:39:10;5.23;;;3.83;;
830;SDS011;397;50.564;7.272;2023-01-28T02:41:47;4.77;;;4.10;;
830;SDS011;397;50.564;7.272;2023-01-28T02:44:11;4.93;;;3.90;;
830;SDS011;397;50.564;7.272;2023-01-28T02:46:39;6.03;;;4.47;;
830;SDS011;397;50.564;7.272;2023-01-28T02:49:29;4.90;;;3.93;;
830;SDS011;397;50.564;7.272;2023-01-28T02:55:25;7.43;;;6.13;;
830;SDS011;397;50.564;7.272;2023-01-28T03:01:00;4.83;;;4.40;;
830;SDS011;397;50.564;7.272;2023-01-28T03:06:30;5.97;;;5.17;;
830;SDS011;397;50.564;7.272;2023-01-28T03:09:00;5.27;;;4.63;;
830;SDS011;397;50.564;7.272;2023-01-28T03:14:38;5.47;;;4.60;;
830;SDS011;397;50.564;7.272;2023-01-28T03:17:31;6.53;;;5.40;;
830;SDS011;397;50.564;7.272;2023-01-28T03:20:13;6.40;;;4.53;;
830;SDS011;397;50.564;7.272;2023-01-28T03:23:00;5.90;;;4.67;;
830;SDS011;397;50.564;7.272;2023-01-28T03:25:47;5.20;;;4.70;;
830;SDS011;397;50.564;7.272;2023-01-28T03:28:35;7.90;;;6.00;;
830;SDS011;397;50.564;7.272;2023-01-28T03:31:22;6.57;;;5.07;;
830;SDS011;397;50.564;7.272;2023-01-28T03:34:09;6.20;;;4.97;;
830;SDS011;397;50.564;7.272;2023-01-28T03:36:57;6.20;;;4.83;;
830;SDS011;397;50.564;7.272;2023-01-28T03:39:26;8.30;;;6.03;;
830;SDS011;397;50.564;7.272;2023-01-28T03:41:56;5.93;;;5.03;;
830;SDS011;397;50.564;7.272;2023-01-28T03:44:29;5.60;;;4.83;;
830;SDS011;397;50.564;7.272;2023-01-28T03:47:15;5.33;;;4.70;;
830;SDS011;397;50.564;7.272;2023-01-28T03:49:45;5.33;;;4.80;;
830;SDS011;397;50.564;7.272;2023-01-28T03:52:18;7.03;;;5.60;;
830;SDS011;397;50.564;7.272;2023-01-28T03:54:53;7.10;;;5.50;;
830;SDS011;397;50.564;7.272;2023-01-28T03:57:21;6.67;;;5.57;;
830;SDS011;397;50.564;7.272;2023-01-28T03:59:51;8.43;;;5.37;;
830;SDS011;397;50.564;7.272;2023-01-28T04:02:20;8.10;;;6.50;;
830;SDS011;397;50.564;7.272;2023-01-28T04:04:49;7.60;;;5.67;;
830;SDS011;397;50.564;7.272;2023-01-28T04:07:17;8.37;;;6.07;;
830;SDS011;397;50.564;7.272;2023-01-28T04:09:44;8.13;;;7.10;;
830;SDS011;397;50.564;7.272;2023-01-28T04:12:12;10.50;;;6.67;;
830;SDS011;397;50.564;7.272;2023-01-28T04:14:40;10.50;;;6.43;;
830;SDS011;397;50.564;7.272;2023-01-28T04:17:07;8.20;;;6.87;;
830;SDS011;397;50.564;7.272;2023-01-28T04:19:35;8.40;;;6.20;;
830;SDS011;397;50.564;7.272;2023-01-28T04:22:04;8.10;;;6.33;;
830;SDS011;397;50.564;7.272;2023-01-28T04:24:33;7.17;;;6.47;;
830;SDS011;397;50.564;7.272;2023-01-28T04:27:01;8.13;;;6.67;;
830;SDS011;397;50.564;7.272;2023-01-28T04:29:28;8.43;;;5.80;;
830;SDS011;397;50.564;7.272;2023-01-28T04:31:56;8.70;;;6.70;;
830;SDS011;397;50.564;7.272;2023-01-28T04:34:23;9.63;;;6.70;;
830;SDS011;397;50.564;7.272;2023-01-28T04:36:51;7.97;;;6.53;;
830;SDS011;397;50.564;7.272;2023-01-28T04:39:18;7.33;;;5.27;;
830;SDS011;397;50.564;7.272;2023-01-28T04:41:46;7.80;;;6.00;;
830;SDS011;397;50.564;7.272;2023-01-28T04:44:13;8.67;;;7.37;;
830;SDS011;397;50.564;7.272;2023-01-28T04:46:42;9.07;;;6.33;;
830;SDS011;397;50.564;7.272;2023-01-28T04:49:09;11.30;;;7.00;;
830;SDS011;397;50.564;7.272;2023-01-28T04:51:37;7.23;;;6.00;;
830;SDS011;397;50.564;7.272;2023-01-28T04:54:04;6.63;;;5.87;;
830;SDS011;397;50.564;7.272;2023-01-28T04:56:32;8.87;;;6.80;;
830;SDS011;397;50.564;7.272;2023-01-28T04:58:59;6.93;;;5.60;;
830;SDS011;397;50.564;7.272;2023-01-28T05:01:27;7.37;;;6.30;;
830;SDS011;397;50.564;7.272;2023-01-28T05:03:55;8.10;;;7.30;;
830;SDS011;397;50.564;7.272;2023-01-28T05:06:22;8.33;;;6.13;;
830;SDS011;397;50.564;7.272;2023-01-28T05:08:50;9.40;;;6.00;;
830;SDS011;397;50.564;7.272;2023-01-28T05:11:18;7.90;;;7.03;;
830;SDS011;397;50.564;7.272;2023-01-28T05:13:45;8.30;;;6.20;;
830;SDS011;397;50.564;7.272;2023-01-28T05:16:13;9.30;;;7.30;;
830;SDS011;397;50.564;7.272;2023-01-28T05:18:40;7.03;;;5.73;;
830;SDS011;397;50.564;7.272;2023-01-28T05:21:08;12.33;;;7.40;;
830;SDS011;397;50.564;7.272;2023-01-28T05:23:35;10.37;;;7.97;;
830;SDS011;397;50.564;7.272;2023-01-28T05:26:03;13.10;;;8.40;;
830;SDS011;397;50.564;7.272;2023-01-28T05:28:31;8.57;;;7.20;;
830;SDS011;397;50.564;7.272;2023-01-28T05:31:05;10.07;;;8.97;;
830;SDS011;397;50.564;7.272;2023-01-28T05:33:33;10.37;;;8.07;;
830;SDS011;397;50.564;7.272;2023-01-28T05:36:00;9.73;;;8.33;;
830;SDS011;397;50.564;7.272;2023-01-28T05:38:27;11.50;;;8.97;;
830;SDS011;397;50.564;7.272;2023-01-28T05:40:55;10.37;;;8.63;;
830;SDS011;397;50.564;7.272;2023-01-28T05:43:22;9.47;;;8.13;;
830;SDS011;397;50.564;7.272;2023-01-28T05:45:50;10.63;;;9.53;;
830;SDS011;397;50.564;7.272;2023-01-28T05:48:18;11.63;;;8.63;;
830;SDS011;397;50.564;7.272;2023-01-28T05:50:45;11.70;;;9.03;;
830;SDS011;397;50.564;7.272;2023-01-28T05:53:13;9.47;;;8.60;;
830;SDS011;397;50.564;7.272;2023-01-28T05:55:41;11.93;;;8.67;;
830;SDS011;397;50.564;7.272;2023-01-28T05:58:09;7.90;;;7.03;;
830;SDS011;397;50.564;7.272;2023-01-28T06:00:36;10.43;;;8.30;;
830;SDS011;397;50.564;7.272;2023-01-28T06:03:04;12.77;;;9.40;;
830;SDS011;397;50.564;7.272;2023-01-28T06:05:31;10.60;;;8.03;;
830;SDS011;397;50.564;7.272;2023-01-28T06:07:59;13.27;;;8.70;;
830;SDS011;397;50.564;7.272;2023-01-28T06:10:26;11.03;;;8.03;;
830;SDS011;397;50.564;7.272;2023-01-28T06:12:54;9.63;;;7.90;;
830;SDS011;397;50.564;7.272;2023-01-28T06:15:22;11.23;;;8.77;;
830;SDS011;397;50.564;7.272;2023-01-28T06:17:49;11.83;;;9.13;;
830;SDS011;397;50.564;7.272;2023-01-28T06:20:17;10.50;;;8.70;;
830;SDS011;397;50.564;7.272;2023-01-28T06:22:44;12.17;;;8.63;;
830;SDS011;397;50.564;7.272;2023-01-28T06:25:12;11.83;;;9.40;;
830;SDS011;397;50.564;7.272;2023-01-28T06:27:39;11.37;;;9.60;;
830;SDS011;397;50.564;7.272;2023-01-28T06:30:07;12.50;;;9.97;;
830;SDS011;397;50.564;7.272;2023-01-28T06:32:35;10.70;;;9.03;;
830;SDS011;397;50.564;7.272;2023-01-28T06:35:03;11.20;;;8.80;;
830;SDS011;397;50.564;7.272;2023-01-28T06:37:31;10.83;;;8.43;;
830;SDS011;397;50.564;7.272;2023-01-28T06:39:58;11.43;;;9.83;;
830;SDS011;397;50.564;7.272;2023-01-28T06:42:26;14.40;;;9.80;;
830;SDS011;397;50.564;7.272;2023-01-28T06:44:53;11.37;;;9.90;;
830;SDS011;397;50.564;7.272;2023-01-28T06:47:21;12.77;;;9.50;;
830;SDS011;397;50.564;7.272;2023-01-28T06:49:48;11.30;;;9.60;;
830;SDS011;397;50.564;7.272;2023-01-28T06:52:16;10.47;;;9.00;;
830;SDS011;397;50.564;7.272;2023-01-28T06:54:43;10.53;;;9.50;;
830;SDS011;397;50.564;7.272;2023-01-28T06:57:11;12.10;;;8.97;;
830;SDS011;397;50.564;7.272;2023-01-28T06:59:38;11.13;;;9.13;;
830;SDS011;397;50.564;7.272;2023-01-28T07:02:06;12.67;;;9.90;;
830;SDS011;397;50.564;7.272;2023-01-28T07:04:35;9.43;;;8.43;;
830;SDS011;397;50.564;7.272;2023-01-28T07:07:02;12.23;;;9.53;;
830;SDS011;397;50.564;7.272;2023-01-28T07:09:30;10.77;;;9.23;;
830;SDS011;397;50.564;7.272;2023-01-28T07:11:57;10.50;;;8.77;;
830;SDS011;397;50.564;7.272;2023-01-28T07:14:25;13.63;;;9.37;;
830;SDS011;397;50.564;7.272;2023-01-28T07:16:52;10.73;;;9.53;;
830;SDS011;397;50.564;7.272;2023-01-28T07:19:20;11.03;;;9.73;;
830;SDS011;397;50.564;7.272;2023-01-28T07:21:47;11.70;;;9.97;;
830;SDS011;397;50.564;7.272;2023-01-28T07:24:15;12.57;;;9.67;;
830;SDS011;397;50.564;7.272;2023-01-28T07:26:43;14.70;;;9.93;;
830;SDS011;397;50.564;7.272;2023-01-28T07:29:10;9.83;;;8.60;;
830;SDS011;397;50.564;7.272;2023-01-28T07:31:38;12.63;;;9.73;;
830;SDS011;397;50.564;7.272;2023-01-28T07:34:05;14.63;;;11.30;;
830;SDS011;397;50.564;7.272;2023-01-28T07:36:34;12.63;;;9.77;;
830;SDS011;397;50.564;7.272;2023-01-28T07:39:02;10.57;;;9.47;;
830;SDS011;397;50.564;7.272;2023-01-28T07:41:29;10.30;;;8.57;;
830;SDS011;397;50.564;7.272;2023-01-28T07:43:57;11.37;;;9.83;;
830;SDS011;397;50.564;7.272;2023-01-28T07:46:24;14.37;;;10.43;;
830;SDS011;397;50.564;7.272;2023-01-28T07:48:52;11.30;;;8.87;;
830;SDS011;397;50.564;7.272;2023-01-28T07:51:19;13.00;;;10.63;;
830;SDS011;397;50.564;7.272;2023-01-28T07:53:46;11.60;;;9.60;;
830;SDS011;397;50.564;7.272;2023-01-28T07:56:14;14.87;;;9.47;;
830;SDS011;397;50.564;7.272;2023-01-28T07:58:41;13.17;;;9.17;;
830;SDS011;397;50.564;7.272;2023-01-28T08:01:09;11.87;;;8.83;;
830;SDS011;397;50.564;7.272;2023-01-28T08:03:36;11.67;;;9.50;;
830;SDS011;397;50.564;7.272;2023-01-28T08:06:04;10.47;;;9.10;;
830;SDS011;397;50.564;7.272;2023-01-28T08:08:32;10.80;;;8.40;;
830;SDS011;397;50.564;7.272;2023-01-28T08:11:05;13.30;;;9.70;;
830;SDS011;397;50.564;7.272;2023-01-28T08:13:33;11.90;;;8.40;;
830;SDS011;397;50.564;7.272;2023-01-28T08:16:01;12.03;;;10.80;;
830;SDS011;397;50.564;7.272;2023-01-28T08:18:29;10.30;;;8.20;;
830;SDS011;397;50.564;7.272;2023-01-28T08:20:57;9.03;;;8.03;;
830;SDS011;397;50.564;7.272;2023-01-28T08:23:25;9.53;;;8.53;;
830;SDS011;397;50.564;7.272;2023-01-28T08:25:53;11.40;;;8.07;;
830;SDS011;397;50.564;7.272;2023-01-28T08:28:22;9.57;;;8.27;;
830;SDS011;397;50.564;7.272;2023-01-28T08:30:51;9.87;;;8.60;;
830;SDS011;397;50.564;7.272;2023-01-28T08:33:19;9.53;;;7.90;;
830;SDS011;397;50.564;7.272;2023-01-28T08:35:47;9.17;;;8.30;;
830;SDS011;397;50.564;7.272;2023-01-28T08:38:14;9.90;;;7.90;;
830;SDS011;397;50.564;7.272;2023-01-28T08:40:42;11.53;;;7.83;;
830;SDS011;397;50.564;7.272;2023-01-28T08:43:10;8.87;;;7.90;;
830;SDS011;397;50.564;7.272;2023-01-28T08:45:42;10.20;;;7.07;;
830;SDS011;397;50.564;7.272;2023-01-28T08:48:07;9.87;;;8.83;;
830;SDS011;397;50.564;7.272;2023-01-28T08:50:37;8.80;;;7.90;;
830;SDS011;397;50.564;7.272;2023-01-28T08:53:06;12.73;;;8.20;;
830;SDS011;397;50.564;7.272;2023-01-28T08:55:42;7.93;;;7.10;;
830;SDS011;397;50.564;7.272;2023-01-28T08:58:12;9.13;;;8.23;;
830;SDS011;397;50.564;7.272;2023-01-28T09:00:41;8.67;;;7.77;;
830;SDS011;397;50.564;7.272;2023-01-28T09:03:09;7.07;;;6.37;;
830;SDS011;397;50.564;7.272;2023-01-28T09:05:37;9.27;;;7.70;;
830;SDS011;397;50.564;7.272;2023-01-28T09:08:10;7.80;;;7.00;;
830;SDS011;397;50.564;7.272;2023-01-28T09:10:35;10.67;;;7.77;;
830;SDS011;397;50.564;7.272;2023-01-28T09:13:04;10.40;;;8.90;;
830;SDS011;397;50.564;7.272;2023-01-28T09:15:33;9.73;;;7.57;;
830;SDS011;397;50.564;7.272;2023-01-28T09:18:01;8.70;;;7.77;;
830;SDS011;397;50.564;7.272;2023-01-28T09:20:29;9.10;;;7.50;;
830;SDS011;397;50.564;7.272;2023-01-28T09:22:58;8.70;;;7.70;;
830;SDS011;397;50.564;7.272;2023-01-28T09:25:26;9.00;;;8.10;;
830;SDS011;397;50.564;7.272;2023-01-28T09:27:53;9.40;;;8.50;;
830;SDS011;397;50.564;7.272;2023-01-28T09:30:21;7.70;;;6.90;;
830;SDS011;397;50.564;7.272;2023-01-28T09:32:49;7.50;;;6.70;;
830;SDS011;397;50.564;7.272;2023-01-28T09:35:17;8.90;;;7.23;;
830;SDS011;397;50.564;7.272;2023-01-28T09:37:45;8.40;;;7.60;;
830;SDS011;397;50.564;7.272;2023-01-28T09:40:19;9.60;;;6.90;;
830;SDS011;397;50.564;7.272;2023-01-28T09:48:07;7.60;;;5.90;;
830;SDS011;397;50.564;7.272;2023-01-28T09:50:39;7.23;;;6.10;;
830;SDS011;397;50.564;7.272;2023-01-28T09:53:09;7.10;;;6.07;;
830;SDS011;397;50.564;7.272;2023-01-28T09:55:55;7.67;;;6.80;;
830;SDS011;397;50.564;7.272;2023-01-28T09:58:25;8.37;;;7.17;;
830;SDS011;397;50.564;7.272;2023-01-28T10:06:46;8.57;;;7.23;;
830;SDS011;397;50.564;7.272;2023-01-28T10:09:24;8.77;;;7.10;;
830;SDS011;397;50.564;7.272;2023-01-28T10:17:13;7.70;;;7.00;;
830;SDS011;397;50.564;7.272;2023-01-28T10:19:56;6.83;;;5.93;;
830;SDS011;397;50.564;7.272;2023-01-28T10:22:22;9.13;;;6.77;;
830;SDS011;397;50.564;7.272;2023-01-28T10:24:53;6.93;;;6.23;;
830;SDS011;397;50.564;7.272;2023-01-28T10:27:27;6.90;;;6.20;;
830;SDS011;397;50.564;7.272;2023-01-28T10:29:57;7.70;;;6.77;;
830;SDS011;397;50.564;7.272;2023-01-28T10:32:37;7.57;;;6.20;;
830;SDS011;397;50.564;7.272;2023-01-28T10:35:06;7.30;;;6.53;;
830;SDS011;397;50.564;7.272;2023-01-28T10:37:34;7.20;;;6.40;;
830;SDS011;397;50.564;7.272;2023-01-28T10:40:05;6.67;;;5.87;;
830;SDS011;397;50.564;7.272;2023-01-28T10:42:35;6.97;;;6.00;;
830;SDS011;397;50.564;7.272;2023-01-28T10:47:43;9.33;;;6.80;;
830;SDS011;397;50.564;7.272;2023-01-28T10:50:21;7.60;;;6.23;;
830;SDS011;397;50.564;7.272;2023-01-28T10:52:52;10.20;;;6.60;;
830;SDS011;397;50.564;7.272;2023-01-28T10:55:20;7.00;;;6.23;;
830;SDS011;397;50.564;7.272;2023-01-28T10:57:50;7.80;;;6.87;;
830;SDS011;397;50.564;7.272;2023-01-28T11:00:22;10.07;;;7.30;;
830;SDS011;397;50.564;7.272;2023-01-28T11:02:56;7.87;;;7.10;;
830;SDS011;397;50.564;7.272;2023-01-28T11:05:24;7.10;;;6.40;;
830;SDS011;397;50.564;7.272;2023-01-28T11:08:03;6.20;;;5.60;;
830;SDS011;397;50.564;7.272;2023-01-28T11:10:42;7.67;;;5.80;;
830;SDS011;397;50.564;7.272;2023-01-28T11:13:15;7.20;;;6.13;;
830;SDS011;397;50.564;7.272;2023-01-28T11:15:52;7.10;;;6.40;;
830;SDS011;397;50.564;7.272;2023-01-28T11:18:21;8.50;;;6.73;;
830;SDS011;397;50.564;7.272;2023-01-28T11:20:56;8.30;;;6.70;;
830;SDS011;397;50.564;7.272;2023-01-28T11:23:33;7.10;;;6.40;;
830;SDS011;397;50.564;7.272;2023-01-28T11:26:04;8.90;;;7.03;;
830;SDS011;397;50.564;7.272;2023-01-28T11:28:34;7.43;;;6.63;;
830;SDS011;397;50.564;7.272;2023-01-28T11:31:03;7.33;;;5.63;;
830;SDS011;397;50.564;7.272;2023-01-28T11:34:05;8.27;;;7.30;;
830;SDS011;397;50.564;7.272;2023-01-28T11:36:14;7.80;;;6.50;;
830;SDS011;397;50.564;7.272;2023-01-28T11:38:51;6.90;;;6.20;;
830;SDS011;397;50.564;7.272;2023-01-28T11:41:33;8.10;;;6.97;;
830;SDS011;397;50.564;7.272;2023-01-28T11:44:14;6.80;;;5.93;;
830;SDS011;397;50.564;7.272;2023-01-28T11:46:46;7.50;;;6.70;;
830;SDS011;397;50.564;7.272;2023-01-28T11:52:04;7.67;;;6.57;;
830;SDS011;397;50.564;7.272;2023-01-28T12:00:39;6.93;;;5.87;;
830;SDS011;397;50.564;7.272;2023-01-28T12:06:02;8.00;;;6.83;;
830;SDS011;397;50.564;7.272;2023-01-28T12:08:38;8.03;;;7.23;;
830;SDS011;397;50.564;7.272;2023-01-28T12:11:31;7.83;;;7.03;;
830;SDS011;397;50.564;7.272;2023-01-28T12:14:19;6.83;;;6.23;;
830;SDS011;397;50.564;7.272;2023-01-28T12:19:27;7.57;;;6.67;;
830;SDS011;397;50.564;7.272;2023-01-28T12:22:10;7.80;;;6.93;;
830;SDS011;397;50.564;7.272;2023-01-28T12:24:41;10.53;;;6.60;;
830;SDS011;397;50.564;7.272;2023-01-28T12:30:18;8.47;;;6.50;;
830;SDS011;397;50.564;7.272;2023-01-28T12:38:38;6.73;;;5.70;;
830;SDS011;397;50.564;7.272;2023-01-28T12:41:09;7.00;;;6.30;;
830;SDS011;397;50.564;7.272;2023-01-28T12:43:50;7.00;;;5.80;;
830;SDS011;397;50.564;7.272;2023-01-28T12:49:16;7.63;;;6.27;;
830;SDS011;397;50.564;7.272;2023-01-28T12:52:35;9.33;;;6.40;;
830;SDS011;397;50.564;7.272;2023-01-28T12:54:43;6.77;;;6.00;;
830;SDS011;397;50.564;7.272;2023-01-28T12:57:18;6.50;;;5.90;;
830;SDS011;397;50.564;7.272;2023-01-28T12:59:50;8.30;;;5.80;;
830;SDS011;397;50.564;7.272;2023-01-28T13:02:24;7.37;;;5.80;;
830;SDS011;397;50.564;7.272;2023-01-28T13:05:10;6.67;;;5.37;;
830;SDS011;397;50.564;7.272;2023-01-28T13:07:46;5.90;;;5.13;;
830;SDS011;397;50.564;7.272;2023-01-28T13:10:20;8.87;;;6.20;;
830;SDS011;397;50.564;7.272;2023-01-28T13:12:51;7.60;;;5.30;;
830;SDS011;397;50.564;7.272;2023-01-28T13:15:20;6.07;;;5.27;;
830;SDS011;397;50.564;7.272;2023-01-28T13:17:57;5.77;;;5.20;;
830;SDS011;397;50.564;7.272;2023-01-28T13:20:36;7.80;;;4.67;;
830;SDS011;397;50.564;7.272;2023-01-28T13:23:25;5.73;;;5.23;;
830;SDS011;397;50.564;7.272;2023-01-28T13:28:50;9.57;;;8.67;;
830;SDS011;397;50.564;7.272;2023-01-28T13:31:19;7.30;;;6.50;;
830;SDS011;397;50.564;7.272;2023-01-28T13:36:28;31.93;;;22.77;;
830;SDS011;397;50.564;7.272;2023-01-28T13:39:01;42.43;;;29.47;;
830;SDS011;397;50.564;7.272;2023-01-28T13:41:41;47.53;;;34.93;;
830;SDS011;397;50.564;7.272;2023-01-28T13:44:15;11.20;;;7.10;;
830;SDS011;397;50.564;7.272;2023-01-28T13:46:58;9.37;;;8.00;;
830;SDS011;397;50.564;7.272;2023-01-28T13:49:31;7.77;;;6.57;;
830;SDS011;397;50.564;7.272;2023-01-28T13:52:25;7.77;;;6.97;;
830;SDS011;397;50.564;7.272;2023-01-28T13:54:56;8.43;;;7.60;;
830;SDS011;397;50.564;7.272;2023-01-28T13:57:55;6.97;;;6.00;;
830;SDS011;397;50.564;7.272;2023-01-28T14:09:37;6.00;;;5.20;;
830;SDS011;397;50.564;7.272;2023-01-28T14:17:48;6.67;;;6.07;;
830;SDS011;397;50.564;7.272;2023-01-28T14:23:00;10.53;;;7.47;;
830;SDS011;397;50.564;7.272;2023-01-28T14:28:10;10.33;;;7.13;;
830;SDS011;397;50.564;7.272;2023-01-28T14:31:02;7.30;;;5.70;;
830;SDS011;397;50.564;7.272;2023-01-28T14:33:30;8.37;;;7.40;;
830;SDS011;397;50.564;7.272;2023-01-28T14:35:58;8.07;;;6.03;;
830;SDS011;397;50.564;7.272;2023-01-28T14:38:26;9.17;;;6.93;;
830;SDS011;397;50.564;7.272;2023-01-28T14:40:54;6.77;;;5.60;;
830;SDS011;397;50.564;7.272;2023-01-28T14:43:22;6.70;;;6.10;;
830;SDS011;397;50.564;7.272;2023-01-28T14:48:56;7.13;;;6.43;;
830;SDS011;397;50.564;7.272;2023-01-28T14:54:20;7.57;;;6.77;;
830;SDS011;397;50.564;7.272;2023-01-28T14:57:03;7.87;;;7.17;;
830;SDS011;397;50.564;7.272;2023-01-28T14:59:47;8.10;;;6.83;;
830;SDS011;397;50.564;7.272;2023-01-28T15:02:24;10.03;;;7.00;;
830;SDS011;397;50.564;7.272;2023-01-28T15:04:53;7.10;;;6.43;;
830;SDS011;397;50.564;7.272;2023-01-28T15:07:24;8.60;;;6.80;;
830;SDS011;397;50.564;7.272;2023-01-28T15:09:59;10.23;;;7.67;;
830;SDS011;397;50.564;7.272;2023-01-28T15:12:28;10.10;;;7.43;;
830;SDS011;397;50.564;7.272;2023-01-28T15:15:06;7.00;;;6.30;;
830;SDS011;397;50.564;7.272;2023-01-28T15:17:34;6.50;;;5.90;;
830;SDS011;397;50.564;7.272;2023-01-28T15:20:02;9.03;;;6.63;;
830;SDS011;397;50.564;7.272;2023-01-28T15:22:31;6.70;;;6.00;;
830;SDS011;397;50.564;7.272;2023-01-28T15:24:59;9.00;;;7.70;;
830;SDS011;397;50.564;7.272;2023-01-28T15:27:27;9.73;;;7.43;;
830;SDS011;397;50.564;7.272;2023-01-28T15:29:57;8.83;;;7.90;;
830;SDS011;397;50.564;7.272;2023-01-28T15:32:26;8.07;;;7.27;;
830;SDS011;397;50.564;7.272;2023-01-28T15:34:57;8.30;;;6.30;;
830;SDS011;397;50.564;7.272;2023-01-28T15:37:26;8.40;;;6.70;;
830;SDS011;397;50.564;7.272;2023-01-28T15:40:00;7.80;;;6.40;;
830;SDS011;397;50.564;7.272;2023-01-28T15:42:31;9.13;;;7.20;;
830;SDS011;397;50.564;7.272;2023-01-28T15:44:59;7.03;;;5.80;;
830;SDS011;397;50.564;7.272;2023-01-28T15:47:29;6.63;;;5.70;;
830;SDS011;397;50.564;7.272;2023-01-28T15:50:01;8.10;;;6.70;;
830;SDS011;397;50.564;7.272;2023-01-28T15:52:34;6.77;;;6.07;;
830;SDS011;397;50.564;7.272;2023-01-28T15:55:05;7.50;;;6.33;;
830;SDS011;397;50.564;7.272;2023-01-28T15:57:33;7.20;;;6.00;;
830;SDS011;397;50.564;7.272;2023-01-28T16:00:14;9.20;;;7.37;;
830;SDS011;397;50.564;7.272;2023-01-28T16:02:45;7.40;;;6.67;;
830;SDS011;397;50.564;7.272;2023-01-28T16:05:23;8.03;;;7.23;;
830;SDS011;397;50.564;7.272;2023-01-28T16:08:06;8.73;;;7.60;;
830;SDS011;397;50.564;7.272;2023-01-28T16:10:39;8.00;;;7.10;;
830;SDS011;397;50.564;7.272;2023-01-28T16:15:47;6.67;;;6.00;;
830;SDS011;397;50.564;7.272;2023-01-28T16:18:28;10.73;;;6.90;;
830;SDS011;397;50.564;7.272;2023-01-28T16:21:02;12.43;;;7.63;;
830;SDS011;397;50.564;7.272;2023-01-28T16:23:32;9.63;;;7.27;;
830;SDS011;397;50.564;7.272;2023-01-28T16:28:32;8.80;;;7.90;;
830;SDS011;397;50.564;7.272;2023-01-28T16:31:00;7.13;;;6.03;;
830;SDS011;397;50.564;7.272;2023-01-28T16:33:28;11.93;;;8.77;;
830;SDS011;397;50.564;7.272;2023-01-28T16:35:55;12.27;;;8.57;;
830;SDS011;397;50.564;7.272;2023-01-28T16:38:24;9.47;;;8.40;;
830;SDS011;397;50.564;7.272;2023-01-28T16:40:51;11.23;;;9.23;;
830;SDS011;397;50.564;7.272;2023-01-28T16:43:19;9.83;;;8.10;;
830;SDS011;397;50.564;7.272;2023-01-28T16:45:46;12.47;;;10.53;;
830;SDS011;397;50.564;7.272;2023-01-28T16:48:14;12.43;;;9.20;;
830;SDS011;397;50.564;7.272;2023-01-28T16:50:41;11.87;;;9.10;;
830;SDS011;397;50.564;7.272;2023-01-28T16:53:29;11.00;;;8.33;;
830;SDS011;397;50.564;7.272;2023-01-28T16:55:58;8.60;;;7.70;;
830;SDS011;397;50.564;7.272;2023-01-28T16:58:27;9.40;;;8.03;;
830;SDS011;397;50.564;7.272;2023-01-28T17:00:54;43.03;;;25.10;;
830;SDS011;397;50.564;7.272;2023-01-28T17:03:22;9.80;;;7.37;;
830;SDS011;397;50.564;7.272;2023-01-28T17:05:50;12.73;;;6.40;;
830;SDS011;397;50.564;7.272;2023-01-28T17:08:17;11.60;;;7.70;;
830;SDS011;397;50.564;7.272;2023-01-28T17:10:49;10.10;;;9.03;;
830;SDS011;397;50.564;7.272;2023-01-28T17:13:18;12.80;;;11.50;;
830;SDS011;397;50.564;7.272;2023-01-28T17:15:46;10.20;;;8.50;;
830;SDS011;397;50.564;7.272;2023-01-28T17:18:13;9.67;;;8.17;;
830;SDS011;397;50.564;7.272;2023-01-28T17:20:41;8.83;;;7.90;;
830;SDS011;397;50.564;7.272;2023-01-28T17:23:11;8.53;;;7.70;;
830;SDS011;397;50.564;7.272;2023-01-28T17:25:39;8.93;;;7.83;;
830;SDS011;397;50.564;7.272;2023-01-28T17:28:08;6.93;;;6.20;;
830;SDS011;397;50.564;7.272;2023-01-28T17:30:39;8.10;;;7.30;;
830;SDS011;397;50.564;7.272;2023-01-28T17:33:07;9.53;;;8.63;;
830;SDS011;397;50.564;7.272;2023-01-28T17:35:35;9.10;;;8.20;;
830;SDS011;397;50.564;7.272;2023-01-28T17:38:02;10.67;;;7.80;;
830;SDS011;397;50.564;7.272;2023-01-28T17:40:31;9.00;;;8.10;;
830;SDS011;397;50.564;7.272;2023-01-28T17:42:59;8.23;;;6.83;;
830;SDS011;397;50.564;7.272;2023-01-28T17:45:28;10.23;;;7.43;;